x

Port Stanley (45132) Wave Buoy

6:00am - Wed 20th Sep 2017 All times are CDT. -5 hours from GMT.

  • Sig Wave height 1.0ft
  • Peak Period 3s
  • Wind
    13mph, 16mph gusts
  • Sea Temp 71°f
  • Air Temp 71°f
  • Sea Pressure 1015.4mb
  • Port Stanley
  • Port Stanley

More Historic Weather Station data

Upgrade to MSW Pro to gain access to the past 30 days of data for over 8000 Wavebouys and Weather Stations around the globe.

Join

Comparision Forecast

View Surf forecast
   
Wed 09/20 6:00am 1ft 3s 13 16 mph 1015.4mb 71f 71f
5:00am 1ft 3s 11 13 mph 1014.8mb 71f 71f
4:00am 1ft 3s 11 11 mph 1014.4mb 71f 71f
3:00am 0.7ft 3s 11 13 mph 1014.2mb 71f 71f
2:00am 0.7ft 2s 13 13 mph 1014.2mb 71f 71f
1:00am 0.3ft 2s 9 9 mph 1014.7mb 71f 72f
12:00am 0.3ft 2s 9 9 mph 1014.6mb 71f 72f
Tue 09/19 11:00pm 0.3ft 2s 7 9 mph 1014.5mb 72f 72f
10:00pm 0.3ft 2s 9 9 mph 1014.6mb 72f 72f
9:00pm 0.3ft 2s 7 7 mph 1014.7mb 72f 73f
8:00pm 0.3ft 3s 4 7 mph 1014.8mb 72f 73f
7:00pm 0.3ft 3s 7 7 mph 1014.5mb 72f 73f
6:00pm 0.3ft 3s 4 4 mph 1014.5mb 72f 72f
5:00pm 0.3ft 3s 4 7 mph 1014.4mb 72f 72f
4:00pm 0.7ft 3s 7 9 mph 1014.3mb 73f 72f
3:00pm 0.7ft 3s 2 4 mph 1014.6mb 73f 71f
2:00pm 1ft 3s 4 4 mph 1014.9mb 73f 71f
1:00pm 0.7ft 3s  -  0 mph 1015.9mb 73f 73f
12:00pm 1ft 3s 4 4 mph 1016.3mb 72f 71f
11:00am 1ft 3s 4 7 mph 1016.2mb 71f 71f
10:00am 0.7ft 3s 9 11 mph 1016mb 71f 70f
9:00am 0.7ft 3s 9 11 mph 1015.7mb 71f 71f
8:00am 0.7ft 2s 9 11 mph 1015.6mb 71f 71f
7:00am 0.7ft 2s 9 13 mph 1015.5mb 71f 71f
6:00am 0.3ft 2s 11 13 mph 1015.4mb 71f 71f
5:00am 0.3ft 2s 11 13 mph 1015.1mb 71f 71f
4:00am  -  2s 7 7 mph 1015.4mb 71f 71f
3:00am  -  2s 7 7 mph 1015.6mb 71f 71f
2:00am 0.3ft 2s 4 4 mph 1015.6mb 71f 71f
1:00am 0.3ft 2s 2 2 mph 1016mb 71f 71f
12:00am 0.3ft 2s 2 2 mph 1016.2mb 71f 71f
Mon 09/18 11:00pm 0.3ft 2s 4 7 mph 1017mb 71f 71f
10:00pm 0.3ft 2s 7 9 mph 1017mb 71f 71f
9:00pm 0.3ft 2s 9 11 mph 1016.7mb 71f 71f
8:00pm 0.7ft 2s 11 11 mph 1016.9mb 71f 70f
7:00pm 0.7ft 2s 9 11 mph 1016.7mb 72f 71f
6:00pm 0.3ft 3s 11 13 mph 1016.6mb 72f 71f
5:00pm 0.7ft 3s 7 9 mph 1016.7mb 72f 72f
4:00pm 0.7ft 3s 4 4 mph 1016.9mb 72f 72f
3:00pm 0.7ft 3s 7 9 mph 1017.1mb 72f 72f
2:00pm 0.7ft 3s 7 9 mph 1017.2mb 72f 72f
1:00pm 0.7ft 3s 9 11 mph 1017.6mb 72f 71f
12:00pm 0.7ft 2s 11 13 mph 1018mb 72f 71f
11:00am 0.3ft 2s 11 13 mph 1018.3mb 71f 71f
10:00am 0.3ft 2s 9 11 mph 1018.1mb 71f 71f
9:00am 0.3ft 3s 9 9 mph 1018.1mb 71f 71f
8:00am 0.3ft 4s 7 9 mph 1017.7mb 71f 71f
7:00am 0.3ft 2s 7 9 mph 1017.8mb 71f 71f
6:00am 0.3ft 2s 7 9 mph 1017.7mb 71f 71f
5:00am 0.7ft 2s 7 9 mph 1017.7mb 71f 71f
4:00am 0.7ft 2s 9 11 mph 1017mb 71f 71f
3:00am 0.7ft 2s 9 11 mph 1017.1mb 71f 71f
2:00am 0.7ft 2s 9 11 mph 1017.4mb 71f 72f
1:00am 0.7ft 2s 9 11 mph 1017.6mb 71f 72f
12:00am 0.7ft 2s 9 11 mph 1017.7mb 72f 72f
Sun 09/17 11:00pm 0.3ft 2s 9 11 mph 1018.1mb 72f 72f
10:00pm 0.3ft 2s 9 11 mph 1018.3mb 72f 72f
9:00pm  -  2s 9 11 mph 1018.4mb 72f 72f
8:00pm  -  2s 7 9 mph 1018.3mb 72f 72f
7:00pm  -  2s 2 2 mph 1018.3mb 73f 72f
6:00pm  -  2s 4 4 mph 1017.9mb 73f 72f
5:00pm  -  2s 4 4 mph 1018.1mb 73f 73f
4:00pm 0.3ft 2s 4 7 mph 1018.3mb 74f 72f
3:00pm 0.3ft 2s 7 7 mph 1018.7mb 74f 72f
2:00pm 0.3ft 2s 4 7 mph 1018.9mb 74f 72f
1:00pm 0.3ft 2s 4 4 mph 1019.4mb 73f 71f
12:00pm 0.3ft 2s 2 4 mph 1020mb 73f 71f
11:00am 0.3ft 2s 4 7 mph 1020.6mb 72f 70f
10:00am 0.3ft 2s 4 7 mph 1020.8mb 71f 70f
9:00am 0.3ft 2s 4 7 mph 1020.8mb 70f 70f
8:00am 0.3ft 2s 7 9 mph 1020.2mb 70f 70f
7:00am 0.3ft 2s 4 4 mph 1020.6mb 70f 70f
6:00am 0.3ft 4s 4 7 mph 1020.3mb 70f 70f
5:00am 0.3ft 4s 7 7 mph 1019.8mb 70f 69f
4:00am 0.3ft 4s 7 7 mph 1019.7mb 71f 70f
3:00am  -  2s 4 4 mph 1020mb 71f 70f
2:00am  -  2s 4 4 mph 1020.1mb 71f 70f
1:00am  -  3s 4 7 mph 1019.9mb 71f 71f
12:00am  -  4s 4 7 mph 1020mb 71f 71f
Sat 09/16 11:00pm  -  3s 4 4 mph 1020.5mb 71f 71f
10:00pm  -  4s 2 4 mph 1020.8mb 72f 71f
9:00pm  -  2s 4 4 mph 1020.6mb 72f 71f
8:00pm 0.3ft 2s 4 7 mph 1020.6mb 73f 72f
7:00pm 0.3ft 2s 4 4 mph 1020.5mb 74f 73f
6:00pm 0.3ft 2s 4 4 mph 1020.4mb 75f 73f
5:00pm 0.3ft 2s 2 2 mph 1020.6mb 76f 74f
4:00pm 0.3ft 2s 2 2 mph 1020.9mb 76f 74f
3:00pm 0.3ft 2s  -  2 mph 1021.3mb 76f 74f
2:00pm 0.3ft 2s  -  2 mph 1021.8mb 75f 74f
1:00pm 0.3ft 4s 2 4 mph 1022.2mb 74f 71f